Terminal Aerodrome Forecast
Issued by NWS Charleston, WV

Current Version | Previous Version | Text Only | Print | Product List | Glossary Off
Versions: 1 2 3 4 5 6 7 8 9 10 11 12 13 14 15 16 17 18 19 20 21 22 23 24 25 26 27 28 29 30 31 32 33

000
FTUS41 KRLX 231011 AAE
TAFHTS
TAF AMD
KHTS 231011Z 2310/2406 00000KT 4SM BR BKN080
     FM231200 00000KT P6SM SCT070 BKN250
     FM231300 17007KT P6SM BKN250
     FM231700 21009G16KT P6SM SCT030
     FM232100 21008KT P6SM BKN035
     FM232300 23006KT P6SM BKN025
     FM240000 24005KT P6SM BKN015
     FM240200 24004KT P6SM OVC015
     FM240300 25003KT P6SM OVC007
     FM240500 26003KT 4SM BR BKN006=

USA.gov is the U.S. government's official web portal to all federal, state and local government web resources and services.